Bonnard, Canada
Current Conditions -  °F | °C
As of 7:00 AM on Sunday 23 Nov 2014 (Local Time) from CYRJ Reporting Station
Overcast Overcast  
Wind Chill: -4°   Ceiling: 3000
Heat Index:   Visibility: 40mi
Dew Point: -4°   Wind: 8mph
Humidity: 75%   Direction: 330°NNW
Pressure: 29.91"   Gusts: NA
Location:  50.73°N, 71.02°W
Report Text: CYRJ 231200Z 33007KT 40SM FEW010 OVC030 M00/M04 A2991 RMK SF1SC8 SF TR PRESRR SLP139
Loading
Personal Weather Stations






























Interactive Weather Map New forecast layout! Learn more

10-Day Weather Forecast

Advertisements
Track Severe Weather on mobile